Time;durP1;ratioP1;P1;durP2;ratioP2;P2;SDS_P1;SDS_P2;PMS_P1;PMS_P2;Temp;Humidity;BMP_temperature;BMP_pressure;BME280_temperature;BME280_humidity;BME280_pressure;Samples;Min_cycle;Max_cycle;Signal;HPM_P1;HPM_P2
2022/06/10 00:00:29;;;;;;;18.80;11.83;;;18.80;99.90;;;;;;5017068;28;20217;-77
2022/06/10 00:02:56;;;;;;;13.13;10.90;;;18.80;99.90;;;;;;5034698;28;20267;-77
2022/06/10 00:05:27;;;;;;;14.50;11.73;;;18.80;99.90;;;;;;5033237;28;20235;-77
2022/06/10 00:07:55;;;;;;;14.13;11.30;;;18.80;99.90;;;;;;5016587;28;20227;-77
2022/06/10 00:10:24;;;;;;;19.97;11.20;;;18.90;99.90;;;;;;5016600;28;20215;-76
2022/06/10 00:12:52;;;;;;;14.73;11.23;;;18.90;99.90;;;;;;5016803;28;20210;-77
2022/06/10 00:15:19;;;;;;;14.67;11.47;;;18.90;99.90;;;;;;5016586;28;20202;-77
2022/06/10 00:17:46;;;;;;;14.03;11.20;;;18.90;99.90;;;;;;5034501;28;20183;-77
2022/06/10 00:20:16;;;;;;;17.90;11.67;;;18.80;99.90;;;;;;5016608;28;20194;-77
2022/06/10 00:22:43;;;;;;;13.67;11.27;;;18.80;99.90;;;;;;5016571;28;20242;-76
2022/06/10 00:25:11;;;;;;;21.17;12.23;;;18.80;99.90;;;;;;5016278;28;20824;-77
2022/06/10 00:27:38;;;;;;;13.97;10.97;;;18.70;99.90;;;;;;5016699;28;20235;-77
2022/06/10 00:30:07;;;;;;;13.40;11.13;;;18.70;99.90;;;;;;5016952;28;20195;-76
2022/06/10 00:32:34;;;;;;;13.37;10.97;;;18.70;99.90;;;;;;5016282;28;20221;-77
2022/06/10 00:35:01;;;;;;;15.97;11.97;;;18.80;99.90;;;;;;5016077;28;20551;-76
2022/06/10 00:37:28;;;;;;;15.03;11.73;;;18.80;99.90;;;;;;5016280;28;20206;-77
2022/06/10 00:39:55;;;;;;;22.03;12.27;;;18.70;99.90;;;;;;5033955;28;20227;-76
2022/06/10 00:42:23;;;;;;;15.00;11.80;;;18.80;99.90;;;;;;5015226;28;20254;-76
2022/06/10 00:44:52;;;;;;;14.97;11.57;;;18.70;99.90;;;;;;5016085;28;20209;-78
2022/06/10 00:47:38;;;;;;;15.53;11.47;;;18.70;99.90;;;;;;5016255;28;20212;-75
2022/06/10 00:50:14;;;;;;;13.67;11.20;;;18.70;99.90;;;;;;5016141;28;20707;-75
2022/06/10 00:53:10;;;;;;;18.43;12.60;;;18.70;99.90;;;;;;5015931;28;20198;-76
2022/06/10 00:55:38;;;;;;;13.50;11.60;;;18.70;99.90;;;;;;5032372;28;20192;-78
2022/06/10 00:58:23;;;;;;;17.23;12.27;;;18.60;99.90;;;;;;5016198;28;20199;-75
2022/06/10 01:00:50;;;;;;;17.30;11.23;;;18.60;99.90;;;;;;5032624;28;20226;-76
2022/06/10 01:03:17;;;;;;;17.90;12.33;;;18.60;99.90;;;;;;5015751;28;20535;-75
2022/06/10 01:05:45;;;;;;;13.80;11.37;;;18.70;99.90;;;;;;5033475;28;20612;-75
2022/06/10 01:08:15;;;;;;;16.77;11.77;;;18.60;99.90;;;;;;5015693;28;20314;-75
2022/06/10 01:11:24;;;;;;;15.87;12.37;;;18.50;99.90;;;;;;5015924;28;20284;-78
2022/06/10 01:14:06;;;;;;;15.20;12.23;;;18.60;99.90;;;;;;4953440;29;20202;-77
2022/06/10 01:16:35;;;;;;;17.67;12.43;;;18.60;99.90;;;;;;4937427;29;20216;-78
2022/06/10 01:19:14;;;;;;;15.97;12.53;;;18.50;99.90;;;;;;4937250;29;20202;-78
2022/06/10 01:22:00;;;;;;;16.43;12.93;;;18.50;99.90;;;;;;4937397;29;20674;-78
2022/06/10 01:25:32;;;;;;;16.87;12.87;;;18.40;99.90;;;;;;4952987;29;20630;-77
2022/06/10 01:28:35;;;;;;;19.10;13.40;;;18.40;99.90;;;;;;4895978;29;20248;-75
2022/06/10 01:31:27;;;;;;;18.27;13.67;;;18.40;99.90;;;;;;4880365;29;20196;-76
2022/06/10 01:34:03;;;;;;;20.10;13.00;;;18.40;99.90;;;;;;4880237;29;20672;-76
2022/06/10 01:36:44;;;;;;;18.10;13.27;;;18.30;99.90;;;;;;4895498;29;20204;-76
2022/06/10 01:39:17;;;;;;;17.70;13.97;;;18.30;99.90;;;;;;4879788;29;20291;-76
2022/06/10 01:41:50;;;;;;;55.93;16.90;;;18.30;99.90;;;;;;4895533;29;20267;-76
2022/06/10 01:44:35;;;;;;;23.07;14.03;;;18.40;99.90;;;;;;4879797;29;20295;-76
2022/06/10 01:47:10;;;;;;;19.63;13.30;;;18.40;99.90;;;;;;4879841;29;20196;-77
2022/06/10 01:49:49;;;;;;;18.13;13.43;;;18.30;99.90;;;;;;4882919;29;20576;-77
2022/06/10 01:52:33;;;;;;;17.10;13.10;;;18.30;99.90;;;;;;4917279;29;20305;-77
2022/06/10 01:55:23;;;;;;;21.27;13.67;;;18.30;99.90;;;;;;4917470;29;20202;-77
2022/06/10 01:58:08;;;;;;;20.23;13.07;;;18.30;99.90;;;;;;4946104;28;20192;-77
2022/06/10 02:00:40;;;;;;;19.60;13.60;;;18.20;99.90;;;;;;5015040;28;20230;-77
2022/06/10 02:03:21;;;;;;;20.27;13.47;;;18.20;99.90;;;;;;5032589;28;20199;-76
2022/06/10 02:05:53;;;;;;;16.90;13.27;;;18.20;99.90;;;;;;5014892;28;20207;-76
2022/06/10 02:08:28;;;;;;;19.90;14.27;;;18.10;99.90;;;;;;5014759;28;20317;-76
2022/06/10 02:11:06;;;;;;;19.73;13.33;;;18.10;99.90;;;;;;5032666;28;20214;-78
2022/06/10 02:13:42;;;;;;;20.97;14.77;;;18.10;99.90;;;;;;5031683;28;20213;-77
2022/06/10 02:16:13;;;;;;;19.20;14.07;;;18.10;99.90;;;;;;5014780;28;20290;-78
2022/06/10 02:18:58;;;;;;;21.20;14.10;;;18.10;99.90;;;;;;5014605;28;20195;-78
2022/06/10 02:21:45;;;;;;;18.43;14.13;;;18.10;99.90;;;;;;5032705;28;20206;-77
2022/06/10 02:24:27;;;;;;;20.67;14.67;;;18.10;99.90;;;;;;5031095;28;20196;-77
2022/06/10 02:27:01;;;;;;;19.50;15.47;;;18.10;99.90;;;;;;5014441;28;20286;-77
2022/06/10 02:29:38;;;;;;;21.20;15.97;;;17.90;99.90;;;;;;5031163;28;20313;-77
2022/06/10 02:32:06;;;;;;;19.53;15.40;;;17.90;99.90;;;;;;5032504;28;20194;-77
2022/06/10 02:34:33;;;;;;;22.10;15.80;;;17.90;99.90;;;;;;5032207;28;20243;-77
2022/06/10 02:37:25;;;;;;;20.93;15.43;;;17.90;99.90;;;;;;5014630;28;20222;-77
2022/06/10 02:40:14;;;;;;;18.63;14.50;;;18.00;99.90;;;;;;5014533;28;20299;-77
2022/06/10 02:42:42;;;;;;;19.40;14.60;;;18.00;99.90;;;;;;5014497;28;20223;-76
2022/06/10 02:45:18;;;;;;;18.87;14.70;;;18.00;99.90;;;;;;5014706;28;20323;-76
2022/06/10 02:47:57;;;;;;;17.53;14.00;;;18.00;99.90;;;;;;5014360;28;20306;-76
2022/06/10 02:50:24;;;;;;;16.83;13.60;;;18.00;99.90;;;;;;5014561;28;20200;-76
2022/06/10 02:52:52;;;;;;;19.20;14.73;;;18.10;99.90;;;;;;5014330;28;20700;-75
2022/06/10 02:55:22;;;;;;;20.40;14.40;;;18.10;99.90;;;;;;5030887;28;20207;-75
2022/06/10 03:04:02;;;;;;;20.33;14.63;;;18.10;99.90;;;;;;4935834;28;20261;-75
2022/06/10 03:07:06;;;;;;;19.87;14.70;;;18.20;99.90;;;;;;4938905;29;20206;-76
2022/06/10 03:09:48;;;;;;;18.50;14.83;;;18.20;99.90;;;;;;4938968;29;20691;-78
2022/06/10 03:12:21;;;;;;;34.03;16.00;;;18.30;99.90;;;;;;4955327;29;20230;-78
2022/06/10 03:15:03;;;;;;;23.23;16.77;;;18.30;99.90;;;;;;4939124;29;20190;-78
2022/06/10 03:17:41;;;;;;;24.43;17.10;;;18.00;99.90;;;;;;4938922;29;20727;-77
2022/06/10 03:20:27;;;;;;;24.70;18.00;;;17.90;99.90;;;;;;4939118;29;20201;-76
2022/06/10 03:23:03;;;;;;;25.37;17.70;;;18.00;99.90;;;;;;4955146;29;20213;-79
2022/06/10 03:25:39;;;;;;;25.03;17.27;;;18.00;99.90;;;;;;4939045;29;20202;-79
2022/06/10 03:28:44;;;;;;;21.33;17.07;;;18.10;99.90;;;;;;4939081;29;20313;-79
2022/06/10 03:31:30;;;;;;;24.23;18.40;;;18.00;99.90;;;;;;4931401;29;20246;-76
2022/06/10 03:34:21;;;;;;;25.20;18.43;;;18.00;99.90;;;;;;4938563;29;20280;-76
2022/06/10 03:36:49;;;;;;;23.07;17.37;;;18.00;99.90;;;;;;4939410;28;20206;-75
2022/06/10 03:39:20;;;;;;;20.80;16.13;;;17.90;99.90;;;;;;5016994;28;20203;-76
2022/06/10 03:42:03;;;;;;;20.17;15.83;;;17.70;99.90;;;;;;5017289;28;20235;-76
2022/06/10 03:44:32;;;;;;;21.97;15.20;;;17.80;99.90;;;;;;5016994;28;20683;-76
2022/06/10 03:47:00;;;;;;;19.03;14.80;;;17.80;99.90;;;;;;5017090;28;20633;-79
2022/06/10 03:49:31;;;;;;;19.23;13.83;;;17.80;99.90;;;;;;5017262;28;20317;-79
2022/06/10 03:52:00;;;;;;;18.07;14.20;;;17.80;99.90;;;;;;5017290;28;20198;-79
2022/06/10 03:54:27;;;;;;;19.20;14.03;;;17.90;99.90;;;;;;5016925;28;20213;-79
2022/06/10 03:56:54;;;;;;;17.20;12.97;;;17.80;99.90;;;;;;5017425;28;20265;-80
2022/06/10 03:59:21;;;;;;;17.37;13.20;;;17.80;99.90;;;;;;5016957;28;20192;-79
2022/06/10 04:01:48;;;;;;;15.53;12.43;;;18.00;99.90;;;;;;5017217;28;20206;-78
2022/06/10 04:04:15;;;;;;;18.33;13.43;;;18.10;99.90;;;;;;5016872;28;20283;-78
2022/06/10 04:06:42;;;;;;;15.90;12.37;;;18.10;99.90;;;;;;5016808;28;20195;-76
2022/06/10 04:09:25;;;;;;;17.77;13.30;;;18.20;99.90;;;;;;5034177;28;20588;-76
2022/06/10 04:11:52;;;;;;;19.17;13.10;;;18.30;99.90;;;;;;5016853;28;20645;-77
2022/06/10 04:14:19;;;;;;;18.70;13.03;;;18.30;99.90;;;;;;5034562;28;20195;-76
2022/06/10 04:16:46;;;;;;;15.03;11.67;;;18.40;99.90;;;;;;5016670;28;20202;-77
2022/06/10 04:19:13;;;;;;;18.27;13.47;;;18.50;99.90;;;;;;5016720;28;20330;-77
2022/06/10 04:21:41;;;;;;;18.17;13.37;;;18.80;99.90;;;;;;5034599;28;20196;-77
2022/06/10 04:24:08;;;;;;;15.60;13.00;;;18.70;99.90;;;;;;5033068;28;20642;-77
2022/06/10 04:26:36;;;;;;;21.87;14.17;;;18.80;99.90;;;;;;5034154;28;20187;-77
2022/06/10 04:29:12;;;;;;;17.77;14.00;;;18.80;99.90;;;;;;5016824;28;20231;-77
2022/06/10 04:31:39;;;;;;;16.63;13.40;;;18.80;99.90;;;;;;5033169;28;20195;-75
2022/06/10 04:34:07;;;;;;;17.80;13.77;;;18.80;99.90;;;;;;5016648;28;20326;-77
2022/06/10 04:36:34;;;;;;;19.57;14.47;;;18.90;99.90;;;;;;5016398;28;20195;-77
2022/06/10 04:39:02;;;;;;;19.10;13.63;;;18.80;99.90;;;;;;5033936;28;20267;-76
2022/06/10 04:41:30;;;;;;;19.63;14.57;;;18.90;99.90;;;;;;5016157;28;20227;-77
2022/06/10 04:43:56;;;;;;;20.50;14.27;;;18.90;99.90;;;;;;5016002;28;20286;-77
2022/06/10 04:46:28;;;;;;;18.00;15.00;;;19.10;99.90;;;;;;5016095;28;20195;-78
2022/06/10 04:48:55;;;;;;;20.03;15.73;;;19.30;99.90;;;;;;5033828;28;20227;-76
2022/06/10 04:51:23;;;;;;;19.57;15.70;;;19.40;99.90;;;;;;5033694;28;20191;-77
2022/06/10 04:53:51;;;;;;;17.13;14.77;;;19.50;99.90;;;;;;5015952;28;20195;-76
2022/06/10 04:56:18;;;;;;;19.53;15.20;;;19.50;99.90;;;;;;5015856;28;20294;-76
2022/06/10 04:58:45;;;;;;;21.00;15.73;;;19.60;99.90;;;;;;5015935;28;20192;-76
2022/06/10 05:01:12;;;;;;;18.00;13.97;;;19.60;99.90;;;;;;5015954;28;20214;-76
2022/06/10 05:03:47;;;;;;;19.63;14.70;;;19.50;99.90;;;;;;5015721;28;20630;-78
2022/06/10 05:06:14;;;;;;;18.70;14.33;;;19.40;99.90;;;;;;5015758;28;20199;-76
2022/06/10 05:08:41;;;;;;;23.33;15.30;;;19.50;99.90;;;;;;5015189;28;20314;-76
2022/06/10 05:11:08;;;;;;;20.33;15.90;;;19.70;99.90;;;;;;5034238;28;20544;-77
2022/06/10 05:13:45;;;;;;;22.60;15.90;;;19.70;99.90;;;;;;5033444;28;20934;-77
2022/06/10 05:16:13;;;;;;;20.83;15.33;;;19.70;99.90;;;;;;5015569;28;20241;-77
2022/06/10 05:18:41;;;;;;;20.23;14.93;;;19.70;99.90;;;;;;5015790;28;20203;-78
2022/06/10 05:21:10;;;;;;;19.27;15.43;;;19.50;99.90;;;;;;5015600;28;20188;-78
2022/06/10 05:23:37;;;;;;;21.13;15.07;;;19.60;99.90;;;;;;5015398;28;20204;-77
2022/06/10 05:26:04;;;;;;;20.17;15.33;;;19.70;99.90;;;;;;5015604;28;20295;-77
2022/06/10 05:28:38;;;;;;;19.60;14.97;;;19.70;99.90;;;;;;5014873;28;20219;-78
2022/06/10 05:31:09;;;;;;;17.17;13.87;;;19.80;99.90;;;;;;5033529;28;20250;-78
2022/06/10 05:36:26;;;;;;;17.03;12.90;;;19.90;99.90;;;;;;5015420;28;20551;-78
2022/06/10 05:38:55;;;;;;;16.27;13.20;;;19.90;99.90;;;;;;5015054;28;20203;-77
2022/06/10 05:48:00;;;;;;;17.30;12.80;;;19.80;99.90;;;;;;5028761;28;20678;-77
2022/06/10 05:50:32;;;;;;;15.50;12.63;;;19.70;99.90;;;;;;5015317;28;20614;-78
2022/06/10 05:53:16;;;;;;;16.07;12.13;;;19.70;99.90;;;;;;5033208;28;20175;-78
2022/06/10 05:55:43;;;;;;;16.57;12.67;;;19.80;99.90;;;;;;5015100;28;20206;-77
2022/06/10 05:58:11;;;;;;;15.70;11.37;;;20.00;99.90;;;;;;5015388;28;20194;-77
2022/06/10 06:00:38;;;;;;;16.37;11.63;;;20.10;99.90;;;;;;5015256;28;20195;-77
2022/06/10 06:03:06;;;;;;;12.90;10.57;;;20.00;99.90;;;;;;5032753;28;20190;-78
2022/06/10 06:05:37;;;;;;;18.27;11.73;;;20.00;99.90;;;;;;5014947;28;20206;-78
2022/06/10 06:08:16;;;;;;;17.50;10.33;;;20.20;99.90;;;;;;5031234;28;20230;-78
2022/06/10 06:10:53;;;;;;;14.00;10.57;;;20.30;99.90;;;;;;5032466;28;20183;-78
2022/06/10 06:13:23;;;;;;;14.83;11.13;;;20.30;99.90;;;;;;5016533;28;20274;-78
2022/06/10 06:19:39;;;;;;;14.97;10.30;;;20.30;99.90;;;;;;5015006;28;20187;-78
2022/06/10 06:22:07;;;;;;;19.83;9.87;;;20.40;99.90;;;;;;5015104;28;20202;-79
2022/06/10 06:25:23;;;;;;;12.07;9.43;;;20.50;99.90;;;;;;5032462;28;20202;-78
2022/06/10 06:27:48;;;;;;;12.97;9.37;;;20.70;99.90;;;;;;5010143;28;20199;-78
2022/06/10 06:30:30;;;;;;;14.83;10.30;;;20.90;99.90;;;;;;5014819;28;20223;-78
2022/06/10 06:33:00;;;;;;;15.23;10.13;;;21.00;99.90;;;;;;5014750;28;20710;-78
2022/06/10 06:35:27;;;;;;;13.93;10.27;;;21.10;99.90;;;;;;5014711;28;20275;-78
2022/06/10 06:37:55;;;;;;;13.97;9.77;;;21.20;99.90;;;;;;5015078;28;20291;-79
2022/06/10 06:40:22;;;;;;;12.77;9.93;;;21.30;99.90;;;;;;5032884;28;20239;-79
2022/06/10 06:42:50;;;;;;;13.73;9.60;;;21.40;99.90;;;;;;5018644;28;20238;-77
2022/06/10 06:45:22;;;;;;;12.63;9.37;;;21.60;99.90;;;;;;5018222;28;20226;-78
2022/06/10 06:51:50;;;;;;;11.50;8.43;;;21.60;99.90;;;;;;5013171;28;20322;-78
2022/06/10 06:54:19;;;;;;;11.70;9.53;;;21.80;99.90;;;;;;5018202;28;20222;-79
2022/06/10 06:57:01;;;;;;;12.07;8.57;;;22.00;99.90;;;;;;5018451;28;20278;-77
2022/06/10 07:00:05;;;;;;;15.47;8.90;;;22.10;99.90;;;;;;4965690;28;20239;-77
2022/06/10 07:02:36;;;;;;;11.40;9.00;;;22.20;99.90;;;;;;5018086;28;20203;-78
2022/06/10 07:05:08;;;;;;;12.13;9.00;;;22.20;99.90;;;;;;5018166;28;20234;-80
2022/06/10 07:07:36;;;;;;;12.13;8.97;;;22.30;99.90;;;;;;5035828;28;20197;-79
2022/06/10 07:10:07;;;;;;;12.27;9.07;;;22.30;99.90;;;;;;5038418;28;20294;-79
2022/06/10 07:13:06;;;;;;;11.73;8.27;;;22.10;99.90;;;;;;5004185;28;20246;-79
2022/06/10 07:16:28;;;;;;;9.83;7.53;;;22.10;99.90;;;;;;5022649;28;20291;-79
2022/06/10 07:23:28;;;;;;;10.00;7.30;;;22.20;99.90;;;;;;4904551;29;20690;-81
2022/06/10 07:26:12;;;;;;;13.13;8.73;;;22.40;99.90;;;;;;4919112;29;20292;-76
2022/06/10 07:29:10;;;;;;;;;;;;;;;;;;;;;
2022/06/10 07:32:15;;;;;;;9.20;8.20;;;22.60;99.90;;;;;;4915082;29;20187;-76
2022/06/10 07:34:42;;;;;;;9.50;7.87;;;22.50;99.90;;;;;;4935642;29;20226;-74
2022/06/10 07:37:13;;;;;;;11.40;8.17;;;22.60;99.90;;;;;;4935965;29;20199;-79
2022/06/10 07:39:40;;;;;;;10.93;8.13;;;22.60;99.90;;;;;;4935774;29;20692;-79
2022/06/10 07:42:14;;;;;;;11.27;8.10;;;22.80;99.90;;;;;;4934800;29;20603;-79
2022/06/10 07:44:44;;;;;;;9.50;8.00;;;22.90;99.90;;;;;;4935962;29;20254;-78
2022/06/10 07:47:25;;;;;;;8.00;7.20;;;22.90;99.90;;;;;;4934208;29;20211;-78
2022/06/10 07:49:56;;;;;;;7.47;6.63;;;22.90;99.90;;;;;;4935737;29;20246;-81
2022/06/10 07:52:37;;;;;;;8.00;6.60;;;23.10;99.90;;;;;;4919323;29;20194;-78
2022/06/10 07:55:13;;;;;;;9.57;6.43;;;23.30;99.90;;;;;;4919568;29;20259;-78
2022/06/10 08:01:31;;;;;;;7.17;6.30;;;23.40;99.90;;;;;;4991301;28;20244;-75
2022/06/10 08:07:43;;;;;;;8.20;5.80;;;23.40;99.90;;;;;;4922642;29;20275;-79
2022/06/10 08:15:20;;;;;;;;;;;;;;;;;;;;;
2022/06/10 08:19:28;;;;;;;8.50;6.80;;;23.80;99.90;;;;;;4832510;29;20477;-76
2022/06/10 08:26:08;;;;;;;8.75;6.40;;;24.20;99.90;;;;;;4825660;29;20277;-77
2022/06/10 08:28:45;;;;;;;11.98;7.28;;;24.50;99.90;;;;;;4826032;29;20232;-78
2022/06/10 08:31:22;;;;;;;8.48;5.93;;;24.90;99.90;;;;;;4826036;29;20855;-83
2022/06/10 08:33:52;;;;;;;6.68;5.63;;;25.40;99.90;;;;;;4825948;29;20237;-79
2022/06/10 08:36:27;;;;;;;5.78;5.07;;;25.90;99.90;;;;;;4810460;29;20649;-75
2022/06/10 08:42:39;;;;;;;7.13;5.20;;;25.50;99.90;;;;;;4859454;29;20240;-77
2022/06/10 08:45:30;;;;;;;6.38;5.50;;;25.40;99.90;;;;;;4843962;29;20221;-77
2022/06/10 08:52:46;;;;;;;7.85;4.95;;;26.40;99.90;;;;;;4804786;29;20726;-75
2022/06/10 08:55:30;;;;;;;5.13;4.63;;;26.80;99.90;;;;;;4842098;29;20391;-75
2022/06/10 08:58:32;;;;;;;7.65;5.38;;;27.20;99.90;;;;;;4877895;29;20193;-76
2022/06/10 09:01:19;;;;;;;7.32;5.53;;;27.40;99.90;;;;;;4877793;29;20233;-76
2022/06/10 09:04:11;;;;;;;10.15;5.00;;;27.30;99.90;;;;;;4906802;29;20199;-76
2022/06/10 09:06:54;;;;;;;7.50;4.90;;;27.70;99.90;;;;;;4900409;29;20729;-81
2022/06/10 09:09:26;;;;;;;6.55;4.93;;;27.60;99.90;;;;;;4934074;29;20321;-75
2022/06/10 09:12:29;;;;;;;;;;;;;;;;;;;;;
2022/06/10 09:16:31;;;;;;;11.68;4.07;;;27.70;99.90;;;;;;4949330;29;20590;-77
2022/06/10 09:19:52;;;;;;;6.30;4.15;;;27.60;99.90;;;;;;4928731;29;20210;-76
2022/06/10 09:22:38;;;;;;;6.05;4.05;;;28.10;99.90;;;;;;4877705;29;20607;-74
2022/06/10 09:25:28;;;;;;;5.80;4.32;;;29.10;99.90;;;;;;4891879;29;20568;-77
2022/06/10 09:27:58;;;;;;;4.30;3.90;;;28.60;99.90;;;;;;4917892;29;20199;-77
2022/06/10 09:30:35;;;;;;;4.47;3.92;;;28.70;99.90;;;;;;4917939;29;20229;-74
2022/06/10 09:33:22;;;;;;;4.75;4.20;;;28.20;99.90;;;;;;4917846;29;20688;-74
2022/06/10 09:35:59;;;;;;;8.77;4.47;;;28.50;99.90;;;;;;4933682;29;20218;-75
2022/06/10 09:39:01;;;;;;;4.60;4.20;;;28.70;99.90;;;;;;4933706;29;20199;-76
2022/06/10 09:41:33;;;;;;;4.95;4.20;;;27.60;99.90;;;;;;4919373;29;20216;-82
2022/06/10 09:44:38;;;;;;;4.72;4.30;;;27.80;99.90;;;;;;4947270;29;20236;-81
2022/06/10 09:47:10;;;;;;;5.75;4.20;;;27.80;99.90;;;;;;4898782;29;20322;-75
2022/06/10 09:50:17;;;;;;;4.75;3.88;;;27.50;99.90;;;;;;4898829;29;20215;-75
2022/06/10 09:53:12;;;;;;;4.15;3.40;;;27.90;99.90;;;;;;4898982;29;20199;-76
2022/06/10 09:55:56;;;;;;;4.38;3.65;;;28.20;99.90;;;;;;4940661;28;20288;-79
2022/06/10 09:58:31;;;;;;;4.38;3.35;;;27.30;99.90;;;;;;4993556;28;20259;-78
2022/06/10 10:01:19;;;;;;;3.55;3.25;;;27.90;99.90;;;;;;5008662;28;20538;-75
2022/06/10 10:04:14;;;;;;;4.55;3.63;;;28.00;99.90;;;;;;4993411;28;20554;-76
2022/06/10 10:08:01;;;;;;;6.32;3.50;;;28.50;99.90;;;;;;5031357;28;20205;-76
2022/06/10 10:10:45;;;;;;;4.88;3.70;;;28.50;99.90;;;;;;4977838;28;20259;-76
2022/06/10 10:13:59;;;;;;;5.18;3.72;;;27.80;99.90;;;;;;4992144;28;20208;-76
2022/06/10 10:17:09;;;;;;;4.38;3.72;;;28.00;99.90;;;;;;4958214;28;20205;-76
2022/06/10 10:20:16;;;;;;;6.00;3.45;;;28.20;99.90;;;;;;4975324;28;20296;-79
2022/06/10 10:22:47;;;;;;;5.95;3.30;;;29.10;99.90;;;;;;4959302;28;20298;-75
2022/06/10 10:25:20;;;;;;;6.22;3.47;;;28.30;99.90;;;;;;4975361;28;20202;-76
2022/06/10 10:27:48;;;;;;;5.85;3.45;;;28.50;99.90;;;;;;4959432;28;20198;-80
2022/06/10 10:30:47;;;;;;;5.80;3.50;;;28.40;99.90;;;;;;4975401;28;20233;-76
2022/06/10 10:33:15;;;;;;;4.80;3.30;;;28.40;99.90;;;;;;4883359;29;20609;-77
2022/06/10 10:35:48;;;;;;;4.45;3.28;;;28.60;99.90;;;;;;4899062;29;20212;-81
2022/06/10 10:38:45;;;;;;;5.05;3.30;;;28.60;99.90;;;;;;4899417;29;20222;-80
2022/06/10 10:42:07;;;;;;;4.43;3.42;;;28.90;99.90;;;;;;4909564;29;20588;-83
2022/06/10 10:44:44;;;;;;;3.63;3.33;;;28.70;99.90;;;;;;4900043;29;20196;-77
2022/06/10 10:47:37;;;;;;;4.80;3.50;;;28.50;99.90;;;;;;4898531;29;20222;-82
2022/06/10 10:50:04;;;;;;;5.03;3.50;;;28.10;99.90;;;;;;4907792;29;20719;-82
2022/06/10 10:52:34;;;;;;;5.60;3.67;;;27.90;99.90;;;;;;4920650;29;20203;-80
2022/06/10 10:55:14;;;;;;;5.47;3.67;;;28.40;99.90;;;;;;4920160;29;20207;-79
2022/06/10 10:57:45;;;;;;;5.43;3.22;;;28.90;99.90;;;;;;4920173;29;20722;-82
2022/06/10 11:00:15;;;;;;;3.88;3.45;;;29.20;99.90;;;;;;4920857;29;20222;-79
2022/06/10 11:02:55;;;;;;;4.53;3.25;;;29.60;99.90;;;;;;4920689;29;20230;-79
2022/06/10 11:05:37;;;;;;;5.10;3.80;;;29.80;99.90;;;;;;4920456;29;20282;-82
2022/06/10 11:08:19;;;;;;;3.97;3.40;;;28.80;99.90;;;;;;4932845;28;20223;-77
2022/06/10 11:11:09;;;;;;;5.95;3.50;;;27.80;99.90;;;;;;5014618;28;20634;-76
2022/06/10 11:13:59;;;;;;;4.97;3.58;;;28.00;99.90;;;;;;5015938;28;20279;-78
2022/06/10 11:16:26;;;;;;;4.63;3.00;;;28.10;99.90;;;;;;5015547;28;20291;-77
2022/06/10 11:19:12;;;;;;;4.45;3.60;;;28.00;99.90;;;;;;5014600;28;20189;-77
2022/06/10 11:22:28;;;;;;;6.15;3.65;;;28.20;99.90;;;;;;5014436;28;20196;-76
2022/06/10 11:25:02;;;;;;;4.70;3.70;;;28.30;99.90;;;;;;4973968;28;20198;-77
2022/06/10 11:27:35;;;;;;;4.35;3.58;;;27.90;99.90;;;;;;4974378;28;20705;-76
2022/06/10 11:30:11;;;;;;;6.18;3.67;;;27.90;99.90;;;;;;4958450;28;20317;-76
2022/06/10 11:32:38;;;;;;;4.53;3.42;;;28.30;99.90;;;;;;4937146;29;20632;-78
2022/06/10 11:35:35;;;;;;;4.00;3.60;;;28.50;99.90;;;;;;4954877;29;20683;-77
2022/06/10 11:42:16;;;;;;;3.97;3.30;;;29.80;99.90;;;;;;4861919;29;20213;-77
2022/06/10 11:45:53;;;;;;;5.15;3.30;;;30.60;99.90;;;;;;4879609;29;20213;-78
2022/06/10 11:49:02;;;;;;;5.38;3.20;;;29.80;99.90;;;;;;4823570;29;20317;-78
2022/06/10 11:51:59;;;;;;;3.90;3.45;;;29.50;99.90;;;;;;4808608;29;20294;-81
2022/06/10 11:55:14;;;;;;;5.95;3.20;;;29.20;99.90;;;;;;4823068;29;20207;-78
2022/06/10 12:01:38;;;;;;;3.47;3.17;;;28.70;99.90;;;;;;4754521;30;20299;-77
2022/06/10 12:04:30;;;;;;;4.57;3.28;;;29.00;99.90;;;;;;4769404;30;20212;-76
2022/06/10 12:07:18;;;;;;;5.80;3.40;;;29.00;99.90;;;;;;4754598;30;20218;-76
2022/06/10 12:10:04;;;;;;;3.30;2.95;;;29.00;99.90;;;;;;4769221;30;20635;-76
2022/06/10 12:12:47;;;;;;;5.72;3.33;;;29.50;99.90;;;;;;4769363;30;20209;-78
2022/06/10 12:15:34;;;;;;;4.20;3.80;;;30.20;99.90;;;;;;4806611;29;20203;-78
2022/06/10 12:18:09;;;;;;;5.85;3.90;;;30.00;99.90;;;;;;4828889;29;20221;-79
2022/06/10 12:20:44;;;;;;;6.05;5.45;;;29.50;99.90;;;;;;4841882;29;20214;-76
2022/06/10 12:23:31;;;;;;;7.63;5.78;;;28.60;99.90;;;;;;4833345;29;20248;-78
2022/06/10 12:26:49;;;;;;;5.78;5.20;;;28.00;99.90;;;;;;4914900;29;20206;-76
2022/06/10 12:29:37;;;;;;;5.50;4.78;;;28.50;99.90;;;;;;4957823;28;20205;-77
2022/06/10 12:32:38;;;;;;;6.32;5.63;;;29.20;99.90;;;;;;5003206;28;20684;-80
2022/06/10 12:35:21;;;;;;;7.88;7.00;;;29.50;99.90;;;;;;5009763;28;20299;-74
2022/06/10 12:38:01;;;;;;;7.15;5.97;;;29.20;99.90;;;;;;5009913;28;20223;-74
2022/06/10 12:40:44;;;;;;;6.47;5.70;;;29.90;99.90;;;;;;4993273;28;20240;-78
2022/06/10 12:43:23;;;;;;;6.50;5.78;;;29.90;99.90;;;;;;5011760;28;20224;-75
2022/06/10 12:46:14;;;;;;;5.95;5.38;;;29.90;99.90;;;;;;5009622;28;20211;-76
2022/06/10 12:48:52;;;;;;;7.13;6.43;;;30.30;99.90;;;;;;4975079;28;20217;-78
2022/06/10 12:52:21;;;;;;;7.53;6.28;;;30.90;99.60;;;;;;4964515;28;20229;-81
2022/06/10 12:55:03;;;;;;;9.65;6.00;;;30.50;99.70;;;;;;4896065;29;20726;-80
2022/06/10 12:57:45;;;;;;;7.70;6.93;;;29.70;99.90;;;;;;4880825;29;20243;-82
2022/06/10 13:00:18;;;;;;;9.48;7.20;;;30.00;99.90;;;;;;4896526;29;20210;-77
2022/06/10 13:03:21;;;;;;;7.75;6.00;;;29.30;99.90;;;;;;4880718;29;20725;-77
2022/06/10 13:05:49;;;;;;;7.22;5.95;;;29.30;99.90;;;;;;4896116;29;20311;-77
2022/06/10 13:08:57;;;;;;;6.95;6.25;;;29.40;99.90;;;;;;4896315;29;20558;-77
2022/06/10 13:12:02;;;;;;;9.40;7.68;;;29.90;99.90;;;;;;4896670;29;20220;-80
2022/06/10 13:14:47;;;;;;;9.65;7.82;;;28.60;99.90;;;;;;4899449;29;20220;-81
2022/06/10 13:17:29;;;;;;;11.73;8.55;;;27.50;99.90;;;;;;4880582;29;20204;-81
2022/06/10 13:20:17;;;;;;;10.43;8.25;;;27.20;99.90;;;;;;4896409;29;20204;-76
2022/06/10 13:22:44;;;;;;;10.40;8.45;;;27.40;99.90;;;;;;4894536;29;20310;-77
2022/06/10 13:25:31;;;;;;;9.80;7.93;;;27.70;99.90;;;;;;4913380;28;20194;-76
2022/06/10 13:27:58;;;;;;;10.07;7.30;;;27.50;99.90;;;;;;4974298;28;20248;-75
2022/06/10 13:30:32;;;;;;;9.82;6.68;;;27.00;99.90;;;;;;4989397;28;20312;-76
2022/06/10 13:33:10;;;;;;;8.68;6.30;;;26.60;99.90;;;;;;4988950;28;20232;-76
2022/06/10 13:35:44;;;;;;;10.43;6.18;;;26.70;99.90;;;;;;4988941;28;20197;-75
2022/06/10 13:38:35;;;;;;;7.88;6.30;;;26.10;99.90;;;;;;4974438;28;20639;-76
2022/06/10 13:44:22;;;;;;;6.35;4.55;;;27.30;99.90;;;;;;4914192;29;20233;-77
2022/06/10 13:46:50;;;;;;;5.97;4.50;;;26.80;99.90;;;;;;4914466;29;20198;-74
2022/06/10 13:53:34;;;;;;;3.85;3.20;;;27.20;99.90;;;;;;4938446;29;20199;-79
2022/06/10 13:56:15;;;;;;;4.93;3.30;;;27.30;99.90;;;;;;4915690;29;20692;-78
2022/06/10 13:58:51;;;;;;;5.55;3.20;;;27.70;99.90;;;;;;4914247;29;20203;-80
2022/06/10 14:01:48;;;;;;;3.45;3.05;;;27.80;99.90;;;;;;4931019;29;20214;-78
2022/06/10 14:04:50;;;;;;;4.00;3.20;;;27.40;99.90;;;;;;4912352;29;20216;-80
2022/06/10 14:07:40;;;;;;;3.42;3.00;;;27.00;99.90;;;;;;4914350;29;20689;-77
2022/06/10 14:10:29;;;;;;;3.25;2.95;;;26.30;99.90;;;;;;4914445;29;20227;-76
2022/06/10 14:13:45;;;;;;;5.38;3.00;;;25.70;99.90;;;;;;4914816;29;20704;-77
2022/06/10 14:16:44;;;;;;;8.15;3.15;;;25.90;99.90;;;;;;4889871;29;20243;-77
2022/06/10 14:19:16;;;;;;;3.78;3.20;;;25.80;99.90;;;;;;4914345;29;20284;-78
2022/06/10 14:21:44;;;;;;;3.75;3.30;;;26.10;99.90;;;;;;5007621;28;20200;-77
2022/06/10 14:24:23;;;;;;;3.53;3.22;;;26.10;99.90;;;;;;5008423;28;20551;-78
2022/06/10 14:27:28;;;;;;;4.80;3.95;;;25.80;99.90;;;;;;5000087;28;20551;-76
2022/06/10 14:34:32;;;;;;;3.72;3.40;;;25.10;99.90;;;;;;4991135;28;20197;-77
2022/06/10 14:37:06;;;;;;;4.05;3.67;;;25.10;99.90;;;;;;4971422;28;20208;-76
2022/06/10 14:39:34;;;;;;;4.40;3.88;;;24.90;99.90;;;;;;4955494;28;20192;-79
2022/06/10 14:42:14;;;;;;;5.25;3.80;;;25.30;99.90;;;;;;4955332;28;20549;-78
2022/06/10 14:44:49;;;;;;;5.28;4.00;;;25.60;99.90;;;;;;4971593;28;20209;-78
2022/06/10 14:47:19;;;;;;;4.55;3.88;;;25.30;99.90;;;;;;4971493;28;20224;-77
2022/06/10 14:50:18;;;;;;;4.30;3.88;;;25.20;99.90;;;;;;4971272;28;20318;-81
2022/06/10 14:52:52;;;;;;;4.57;3.67;;;25.40;99.90;;;;;;4952243;29;20206;-76
2022/06/10 14:55:22;;;;;;;4.57;3.90;;;25.10;99.90;;;;;;4935959;29;20204;-76
2022/06/10 14:58:01;;;;;;;4.05;3.65;;;24.90;99.90;;;;;;4952004;29;20254;-77